sensor_id;sensor_type;location;lat;lon;timestamp;pressure;altitude;pressure_sealevel;temperature
48894;BMP280;34710;35.798;139.446;2023-05-07T00:01:27;99738.78;;;24.53
48894;BMP280;34710;35.798;139.446;2023-05-07T00:03:53;99742.94;;;24.63
48894;BMP280;34710;35.798;139.446;2023-05-07T00:06:19;99743.14;;;24.90
48894;BMP280;34710;35.798;139.446;2023-05-07T00:08:43;99740.85;;;25.38
48894;BMP280;34710;35.798;139.446;2023-05-07T00:11:09;99741.77;;;25.52
48894;BMP280;34710;35.798;139.446;2023-05-07T00:13:35;99743.69;;;25.59
48894;BMP280;34710;35.798;139.446;2023-05-07T00:16:01;99742.14;;;25.45
48894;BMP280;34710;35.798;139.446;2023-05-07T00:18:26;99744.31;;;24.84
48894;BMP280;34710;35.798;139.446;2023-05-07T00:20:51;99741.51;;;24.97
48894;BMP280;34710;35.798;139.446;2023-05-07T00:23:17;99742.53;;;24.91
48894;BMP280;34710;35.798;139.446;2023-05-07T00:25:42;99739.49;;;24.77
48894;BMP280;34710;35.798;139.446;2023-05-07T00:28:08;99745.58;;;24.88
48894;BMP280;34710;35.798;139.446;2023-05-07T00:30:33;99748.37;;;25.12
48894;BMP280;34710;35.798;139.446;2023-05-07T00:32:59;99740.85;;;25.59
48894;BMP280;34710;35.798;139.446;2023-05-07T00:35:24;99740.66;;;25.13
48894;BMP280;34710;35.798;139.446;2023-05-07T00:37:50;99740.16;;;25.36
48894;BMP280;34710;35.798;139.446;2023-05-07T00:40:16;99737.68;;;24.72
48894;BMP280;34710;35.798;139.446;2023-05-07T00:42:40;99741.14;;;24.89
48894;BMP280;34710;35.798;139.446;2023-05-07T00:45:07;99747.04;;;25.24
48894;BMP280;34710;35.798;139.446;2023-05-07T00:47:31;99750.15;;;25.30
48894;BMP280;34710;35.798;139.446;2023-05-07T00:49:58;99742.59;;;25.22
48894;BMP280;34710;35.798;139.446;2023-05-07T00:52:22;99744.96;;;25.43
48894;BMP280;34710;35.798;139.446;2023-05-07T00:54:47;99746.46;;;25.23
48894;BMP280;34710;35.798;139.446;2023-05-07T00:57:12;99746.74;;;25.45
48894;BMP280;34710;35.798;139.446;2023-05-07T00:59:38;99753.74;;;25.26
48894;BMP280;34710;35.798;139.446;2023-05-07T01:02:03;99751.37;;;25.20
48894;BMP280;34710;35.798;139.446;2023-05-07T01:04:29;99755.60;;;25.85
48894;BMP280;34710;35.798;139.446;2023-05-07T01:06:55;99757.09;;;25.28
48894;BMP280;34710;35.798;139.446;2023-05-07T01:09:20;99757.44;;;25.16
48894;BMP280;34710;35.798;139.446;2023-05-07T01:11:45;99755.34;;;25.28
48894;BMP280;34710;35.798;139.446;2023-05-07T01:14:11;99760.41;;;25.05
48894;BMP280;34710;35.798;139.446;2023-05-07T01:16:36;99763.13;;;24.73
48894;BMP280;34710;35.798;139.446;2023-05-07T01:19:01;99770.13;;;24.48
48894;BMP280;34710;35.798;139.446;2023-05-07T01:21:27;99766.70;;;25.07
48894;BMP280;34710;35.798;139.446;2023-05-07T01:23:52;99770.07;;;24.58
48894;BMP280;34710;35.798;139.446;2023-05-07T01:26:17;99767.47;;;24.79
48894;BMP280;34710;35.798;139.446;2023-05-07T01:28:42;99764.92;;;24.52
48894;BMP280;34710;35.798;139.446;2023-05-07T01:31:07;99756.55;;;24.95
48894;BMP280;34710;35.798;139.446;2023-05-07T01:33:34;99754.34;;;24.66
48894;BMP280;34710;35.798;139.446;2023-05-07T01:35:58;99753.20;;;25.45
48894;BMP280;34710;35.798;139.446;2023-05-07T01:38:24;99749.54;;;24.85
48894;BMP280;34710;35.798;139.446;2023-05-07T01:40:49;99753.40;;;25.25
48894;BMP280;34710;35.798;139.446;2023-05-07T01:43:15;99745.45;;;25.61
48894;BMP280;34710;35.798;139.446;2023-05-07T01:45:40;99742.65;;;24.66
48894;BMP280;34710;35.798;139.446;2023-05-07T01:48:06;99738.02;;;25.08
48894;BMP280;34710;35.798;139.446;2023-05-07T01:50:31;99734.23;;;26.32
48894;BMP280;34710;35.798;139.446;2023-05-07T01:52:56;99731.61;;;24.31
48894;BMP280;34710;35.798;139.446;2023-05-07T01:55:21;99737.42;;;25.45
48894;BMP280;34710;35.798;139.446;2023-05-07T01:57:47;99739.86;;;25.71
48894;BMP280;34710;35.798;139.446;2023-05-07T02:00:14;99739.88;;;24.95
48894;BMP280;34710;35.798;139.446;2023-05-07T02:02:38;99736.62;;;26.44
48894;BMP280;34710;35.798;139.446;2023-05-07T02:05:04;99730.31;;;26.36
48894;BMP280;34710;35.798;139.446;2023-05-07T02:07:29;99726.38;;;26.83
48894;BMP280;34710;35.798;139.446;2023-05-07T02:09:55;99725.07;;;27.14
48894;BMP280;34710;35.798;139.446;2023-05-07T02:12:19;99727.05;;;26.40
48894;BMP280;34710;35.798;139.446;2023-05-07T02:14:45;99727.15;;;26.41
48894;BMP280;34710;35.798;139.446;2023-05-07T02:17:10;99722.16;;;26.42
48894;BMP280;34710;35.798;139.446;2023-05-07T02:19:36;99714.12;;;26.60
48894;BMP280;34710;35.798;139.446;2023-05-07T02:22:01;99710.78;;;26.87
48894;BMP280;34710;35.798;139.446;2023-05-07T02:24:27;99714.31;;;26.01
48894;BMP280;34710;35.798;139.446;2023-05-07T02:26:52;99717.36;;;26.67
48894;BMP280;34710;35.798;139.446;2023-05-07T02:29:18;99715.90;;;26.71
48894;BMP280;34710;35.798;139.446;2023-05-07T02:31:43;99716.54;;;26.53
48894;BMP280;34710;35.798;139.446;2023-05-07T02:34:09;99714.34;;;26.62
48894;BMP280;34710;35.798;139.446;2023-05-07T02:36:34;99716.03;;;26.37
48894;BMP280;34710;35.798;139.446;2023-05-07T02:39:00;99712.14;;;26.72
48894;BMP280;34710;35.798;139.446;2023-05-07T02:41:25;99711.58;;;26.69
48894;BMP280;34710;35.798;139.446;2023-05-07T02:43:51;99711.57;;;26.78
48894;BMP280;34710;35.798;139.446;2023-05-07T02:46:17;99711.18;;;26.41
48894;BMP280;34710;35.798;139.446;2023-05-07T02:48:42;99705.88;;;26.71
48894;BMP280;34710;35.798;139.446;2023-05-07T02:51:07;99711.63;;;25.79
48894;BMP280;34710;35.798;139.446;2023-05-07T02:53:33;99709.99;;;26.01
48894;BMP280;34710;35.798;139.446;2023-05-07T02:56:00;99711.06;;;25.75
48894;BMP280;34710;35.798;139.446;2023-05-07T02:58:25;99712.88;;;25.52
48894;BMP280;34710;35.798;139.446;2023-05-07T03:00:50;99714.03;;;26.12
48894;BMP280;34710;35.798;139.446;2023-05-07T03:03:16;99710.99;;;25.68
48894;BMP280;34710;35.798;139.446;2023-05-07T03:05:40;99710.93;;;25.80
48894;BMP280;34710;35.798;139.446;2023-05-07T03:08:06;99704.15;;;25.86
48894;BMP280;34710;35.798;139.446;2023-05-07T03:10:31;99697.46;;;25.42
48894;BMP280;34710;35.798;139.446;2023-05-07T03:12:57;99693.43;;;25.64
48894;BMP280;34710;35.798;139.446;2023-05-07T03:15:23;99691.68;;;26.03
48894;BMP280;34710;35.798;139.446;2023-05-07T03:17:48;99695.76;;;25.99
48894;BMP280;34710;35.798;139.446;2023-05-07T03:20:13;99695.76;;;25.63
48894;BMP280;34710;35.798;139.446;2023-05-07T03:22:38;99696.06;;;25.13
48894;BMP280;34710;35.798;139.446;2023-05-07T03:25:05;99700.17;;;25.17
48894;BMP280;34710;35.798;139.446;2023-05-07T03:27:29;99704.55;;;24.65
48894;BMP280;34710;35.798;139.446;2023-05-07T03:29:54;99707.92;;;24.68
48894;BMP280;34710;35.798;139.446;2023-05-07T03:32:20;99706.95;;;24.25
48894;BMP280;34710;35.798;139.446;2023-05-07T03:34:45;99707.42;;;24.30
48894;BMP280;34710;35.798;139.446;2023-05-07T03:37:10;99709.53;;;24.06
48894;BMP280;34710;35.798;139.446;2023-05-07T03:39:36;99709.02;;;23.99
48894;BMP280;34710;35.798;139.446;2023-05-07T03:42:01;99707.29;;;23.46
48894;BMP280;34710;35.798;139.446;2023-05-07T03:44:27;99716.42;;;22.65
48894;BMP280;34710;35.798;139.446;2023-05-07T03:46:52;99725.34;;;22.30
48894;BMP280;34710;35.798;139.446;2023-05-07T03:49:18;99737.81;;;22.48
48894;BMP280;34710;35.798;139.446;2023-05-07T03:51:43;99743.49;;;21.79
48894;BMP280;34710;35.798;139.446;2023-05-07T03:54:08;99752.25;;;21.12
48894;BMP280;34710;35.798;139.446;2023-05-07T03:56:33;99754.58;;;21.55
48894;BMP280;34710;35.798;139.446;2023-05-07T03:58:59;99756.69;;;21.88
48894;BMP280;34710;35.798;139.446;2023-05-07T04:01:24;99761.05;;;21.58
48894;BMP280;34710;35.798;139.446;2023-05-07T04:03:49;99764.36;;;20.62
48894;BMP280;34710;35.798;139.446;2023-05-07T04:06:15;99766.63;;;20.83
48894;BMP280;34710;35.798;139.446;2023-05-07T04:08:38;99773.62;;;21.21
48894;BMP280;34710;35.798;139.446;2023-05-07T04:11:04;99780.74;;;19.95
48894;BMP280;34710;35.798;139.446;2023-05-07T04:13:31;99783.78;;;20.73
48894;BMP280;34710;35.798;139.446;2023-05-07T04:15:55;99788.45;;;20.86
48894;BMP280;34710;35.798;139.446;2023-05-07T04:18:20;99788.85;;;20.69
48894;BMP280;34710;35.798;139.446;2023-05-07T04:20:45;99790.29;;;20.68
48894;BMP280;34710;35.798;139.446;2023-05-07T04:23:09;99789.21;;;20.35
48894;BMP280;34710;35.798;139.446;2023-05-07T04:25:34;99795.24;;;19.88
48894;BMP280;34710;35.798;139.446;2023-05-07T04:28:00;99795.04;;;19.21
48894;BMP280;34710;35.798;139.446;2023-05-07T04:30:25;99786.94;;;19.95
48894;BMP280;34710;35.798;139.446;2023-05-07T04:32:50;99789.97;;;19.11
48894;BMP280;34710;35.798;139.446;2023-05-07T04:35:15;99786.98;;;19.85
48894;BMP280;34710;35.798;139.446;2023-05-07T04:37:40;99788.53;;;19.99
48894;BMP280;34710;35.798;139.446;2023-05-07T04:40:06;99794.10;;;19.11
48894;BMP280;34710;35.798;139.446;2023-05-07T04:42:30;99802.37;;;19.61
48894;BMP280;34710;35.798;139.446;2023-05-07T04:44:56;99807.13;;;19.88
48894;BMP280;34710;35.798;139.446;2023-05-07T04:47:21;99817.47;;;19.49
48894;BMP280;34710;35.798;139.446;2023-05-07T04:49:46;99816.87;;;19.43
48894;BMP280;34710;35.798;139.446;2023-05-07T04:52:11;99819.61;;;19.44
48894;BMP280;34710;35.798;139.446;2023-05-07T04:54:36;99819.90;;;19.57
48894;BMP280;34710;35.798;139.446;2023-05-07T04:57:03;99819.16;;;18.88
48894;BMP280;34710;35.798;139.446;2023-05-07T04:59:27;99821.51;;;18.92
48894;BMP280;34710;35.798;139.446;2023-05-07T05:01:52;99825.40;;;19.21
48894;BMP280;34710;35.798;139.446;2023-05-07T05:04:17;99836.75;;;19.00
48894;BMP280;34710;35.798;139.446;2023-05-07T05:06:42;99846.80;;;18.67
48894;BMP280;34710;35.798;139.446;2023-05-07T05:09:07;99847.18;;;18.53
48894;BMP280;34710;35.798;139.446;2023-05-07T05:11:33;99850.31;;;18.43
48894;BMP280;34710;35.798;139.446;2023-05-07T05:13:58;99843.04;;;18.86
48894;BMP280;34710;35.798;139.446;2023-05-07T05:16:22;99854.50;;;18.59
48894;BMP280;34710;35.798;139.446;2023-05-07T05:18:48;99857.01;;;18.83
48894;BMP280;34710;35.798;139.446;2023-05-07T05:21:13;99857.44;;;18.80
48894;BMP280;34710;35.798;139.446;2023-05-07T05:23:38;99860.26;;;18.64
48894;BMP280;34710;35.798;139.446;2023-05-07T05:26:03;99854.74;;;18.48
48894;BMP280;34710;35.798;139.446;2023-05-07T05:28:28;99860.98;;;18.57
48894;BMP280;34710;35.798;139.446;2023-05-07T05:30:54;99858.75;;;18.21
48894;BMP280;34710;35.798;139.446;2023-05-07T05:33:18;99861.60;;;18.15
48894;BMP280;34710;35.798;139.446;2023-05-07T05:35:44;99864.32;;;18.29
48894;BMP280;34710;35.798;139.446;2023-05-07T05:38:09;99866.85;;;18.35
48894;BMP280;34710;35.798;139.446;2023-05-07T05:40:34;99865.42;;;18.05
48894;BMP280;34710;35.798;139.446;2023-05-07T05:42:59;99865.80;;;18.07
48894;BMP280;34710;35.798;139.446;2023-05-07T05:45:25;99865.13;;;18.25
48894;BMP280;34710;35.798;139.446;2023-05-07T05:47:49;99870.77;;;18.32
48894;BMP280;34710;35.798;139.446;2023-05-07T05:50:15;99885.85;;;17.99
48894;BMP280;34710;35.798;139.446;2023-05-07T05:52:40;99891.23;;;18.22
48894;BMP280;34710;35.798;139.446;2023-05-07T05:55:06;99898.28;;;17.49
48894;BMP280;34710;35.798;139.446;2023-05-07T05:57:30;99898.15;;;17.33
48894;BMP280;34710;35.798;139.446;2023-05-07T05:59:55;99906.64;;;17.68
48894;BMP280;34710;35.798;139.446;2023-05-07T06:02:20;99908.38;;;17.32
48894;BMP280;34710;35.798;139.446;2023-05-07T06:04:46;99906.94;;;17.39
48894;BMP280;34710;35.798;139.446;2023-05-07T06:07:11;99913.64;;;17.47
48894;BMP280;34710;35.798;139.446;2023-05-07T06:09:36;99912.23;;;17.60
48894;BMP280;34710;35.798;139.446;2023-05-07T06:12:01;99909.43;;;17.99
48894;BMP280;34710;35.798;139.446;2023-05-07T06:14:26;99914.69;;;16.41
48894;BMP280;34710;35.798;139.446;2023-05-07T06:16:51;99916.76;;;16.78
48894;BMP280;34710;35.798;139.446;2023-05-07T06:19:16;99921.29;;;16.93
48894;BMP280;34710;35.798;139.446;2023-05-07T06:21:42;99921.27;;;16.64
48894;BMP280;34710;35.798;139.446;2023-05-07T06:24:07;99921.95;;;17.09
48894;BMP280;34710;35.798;139.446;2023-05-07T06:26:32;99921.84;;;17.32
48894;BMP280;34710;35.798;139.446;2023-05-07T06:28:57;99932.52;;;17.59
48894;BMP280;34710;35.798;139.446;2023-05-07T06:31:22;99933.17;;;17.25
48894;BMP280;34710;35.798;139.446;2023-05-07T06:33:47;99925.01;;;17.15
48894;BMP280;34710;35.798;139.446;2023-05-07T06:36:12;99935.70;;;17.65
48894;BMP280;34710;35.798;139.446;2023-05-07T06:38:38;99922.51;;;17.51
48894;BMP280;34710;35.798;139.446;2023-05-07T06:41:02;99930.03;;;17.62
48894;BMP280;34710;35.798;139.446;2023-05-07T06:43:28;99936.97;;;17.56
48894;BMP280;34710;35.798;139.446;2023-05-07T06:45:53;99940.61;;;17.99
48894;BMP280;34710;35.798;139.446;2023-05-07T06:48:18;99942.74;;;17.46
48894;BMP280;34710;35.798;139.446;2023-05-07T06:50:43;99941.11;;;17.61
48894;BMP280;34710;35.798;139.446;2023-05-07T06:53:08;99939.89;;;17.76
48894;BMP280;34710;35.798;139.446;2023-05-07T06:55:34;99937.99;;;16.96
48894;BMP280;34710;35.798;139.446;2023-05-07T06:57:59;99932.70;;;17.16
48894;BMP280;34710;35.798;139.446;2023-05-07T07:00:24;99933.48;;;17.66
48894;BMP280;34710;35.798;139.446;2023-05-07T07:02:49;99934.91;;;17.11
48894;BMP280;34710;35.798;139.446;2023-05-07T07:05:14;99933.17;;;17.07
48894;BMP280;34710;35.798;139.446;2023-05-07T07:07:39;99926.80;;;16.83
48894;BMP280;34710;35.798;139.446;2023-05-07T07:10:05;99917.71;;;17.05
48894;BMP280;34710;35.798;139.446;2023-05-07T07:12:30;99924.14;;;17.68
48894;BMP280;34710;35.798;139.446;2023-05-07T07:14:54;99939.47;;;16.69
48894;BMP280;34710;35.798;139.446;2023-05-07T07:17:20;99938.32;;;17.00
48894;BMP280;34710;35.798;139.446;2023-05-07T07:19:45;99942.87;;;17.38
48894;BMP280;34710;35.798;139.446;2023-05-07T07:22:10;99939.04;;;17.36
48894;BMP280;34710;35.798;139.446;2023-05-07T07:24:35;99931.70;;;17.24
48894;BMP280;34710;35.798;139.446;2023-05-07T07:27:01;99937.32;;;16.19
48894;BMP280;34710;35.798;139.446;2023-05-07T07:29:25;99939.53;;;17.47
48894;BMP280;34710;35.798;139.446;2023-05-07T07:31:50;99945.12;;;17.38
48894;BMP280;34710;35.798;139.446;2023-05-07T07:34:16;99950.51;;;17.45
48894;BMP280;34710;35.798;139.446;2023-05-07T07:36:41;99944.72;;;16.93
48894;BMP280;34710;35.798;139.446;2023-05-07T07:39:06;99944.93;;;17.12
48894;BMP280;34710;35.798;139.446;2023-05-07T07:41:31;99945.15;;;17.21
48894;BMP280;34710;35.798;139.446;2023-05-07T07:43:56;99945.79;;;17.49
48894;BMP280;34710;35.798;139.446;2023-05-07T07:46:22;99927.73;;;17.27
48894;BMP280;34710;35.798;139.446;2023-05-07T07:48:46;99933.47;;;17.43
48894;BMP280;34710;35.798;139.446;2023-05-07T07:51:12;99924.78;;;17.63
48894;BMP280;34710;35.798;139.446;2023-05-07T07:53:37;99930.94;;;17.41
48894;BMP280;34710;35.798;139.446;2023-05-07T07:56:02;99931.69;;;17.23
48894;BMP280;34710;35.798;139.446;2023-05-07T07:58:28;99920.75;;;16.93
48894;BMP280;34710;35.798;139.446;2023-05-07T08:00:53;99921.81;;;17.28
48894;BMP280;34710;35.798;139.446;2023-05-07T08:03:18;99932.87;;;17.19
48894;BMP280;34710;35.798;139.446;2023-05-07T08:05:43;99938.25;;;16.84
48894;BMP280;34710;35.798;139.446;2023-05-07T08:08:08;99940.13;;;16.99
48894;BMP280;34710;35.798;139.446;2023-05-07T08:10:33;99942.51;;;16.72
48894;BMP280;34710;35.798;139.446;2023-05-07T08:12:59;99943.79;;;17.17
48894;BMP280;34710;35.798;139.446;2023-05-07T08:15:23;99943.24;;;16.98
48894;BMP280;34710;35.798;139.446;2023-05-07T08:17:49;99934.08;;;16.68
48894;BMP280;34710;35.798;139.446;2023-05-07T08:20:13;99933.22;;;17.16
48894;BMP280;34710;35.798;139.446;2023-05-07T08:22:40;99948.44;;;16.79
48894;BMP280;34710;35.798;139.446;2023-05-07T08:25:04;99948.61;;;15.82
48894;BMP280;34710;35.798;139.446;2023-05-07T08:27:29;99960.02;;;15.96
48894;BMP280;34710;35.798;139.446;2023-05-07T08:29:55;99965.26;;;16.38
48894;BMP280;34710;35.798;139.446;2023-05-07T08:32:20;99959.18;;;16.33
48894;BMP280;34710;35.798;139.446;2023-05-07T08:34:44;99950.59;;;16.50
48894;BMP280;34710;35.798;139.446;2023-05-07T08:37:10;99951.64;;;15.85
48894;BMP280;34710;35.798;139.446;2023-05-07T08:39:35;99943.23;;;15.30
48894;BMP280;34710;35.798;139.446;2023-05-07T08:42:01;99949.72;;;16.29
48894;BMP280;34710;35.798;139.446;2023-05-07T08:44:27;99951.96;;;16.25
48894;BMP280;34710;35.798;139.446;2023-05-07T08:46:51;99946.37;;;16.43
48894;BMP280;34710;35.798;139.446;2023-05-07T08:49:16;99948.11;;;16.53
48894;BMP280;34710;35.798;139.446;2023-05-07T08:51:42;99948.57;;;16.27
48894;BMP280;34710;35.798;139.446;2023-05-07T08:54:07;99944.42;;;16.99
48894;BMP280;34710;35.798;139.446;2023-05-07T08:56:32;99945.56;;;16.40
48894;BMP280;34710;35.798;139.446;2023-05-07T08:58:56;99934.97;;;17.28
48894;BMP280;34710;35.798;139.446;2023-05-07T09:01:21;99936.45;;;16.80
48894;BMP280;34710;35.798;139.446;2023-05-07T09:03:47;99930.15;;;17.25
48894;BMP280;34710;35.798;139.446;2023-05-07T09:06:12;99937.07;;;16.82
48894;BMP280;34710;35.798;139.446;2023-05-07T09:08:37;99943.17;;;16.64
48894;BMP280;34710;35.798;139.446;2023-05-07T09:11:03;99942.89;;;16.69
48894;BMP280;34710;35.798;139.446;2023-05-07T09:13:28;99945.11;;;16.35
48894;BMP280;34710;35.798;139.446;2023-05-07T09:15:52;99938.17;;;16.61
48894;BMP280;34710;35.798;139.446;2023-05-07T09:18:18;99943.86;;;15.65
48894;BMP280;34710;35.798;139.446;2023-05-07T09:20:43;99946.76;;;15.25
48894;BMP280;34710;35.798;139.446;2023-05-07T09:23:08;99935.88;;;16.00
48894;BMP280;34710;35.798;139.446;2023-05-07T09:25:34;99935.43;;;15.74
48894;BMP280;34710;35.798;139.446;2023-05-07T09:27:59;99940.32;;;14.96
48894;BMP280;34710;35.798;139.446;2023-05-07T09:30:27;99934.59;;;15.99
48894;BMP280;34710;35.798;139.446;2023-05-07T09:32:49;99934.01;;;16.12
48894;BMP280;34710;35.798;139.446;2023-05-07T09:35:16;99936.41;;;16.05
48894;BMP280;34710;35.798;139.446;2023-05-07T09:37:40;99932.72;;;16.13
48894;BMP280;34710;35.798;139.446;2023-05-07T09:40:05;99921.30;;;16.17
48894;BMP280;34710;35.798;139.446;2023-05-07T09:42:30;99923.44;;;16.16
48894;BMP280;34710;35.798;139.446;2023-05-07T09:44:54;99933.82;;;15.70
48894;BMP280;34710;35.798;139.446;2023-05-07T09:47:20;99940.78;;;15.88
48894;BMP280;34710;35.798;139.446;2023-05-07T09:49:48;99934.41;;;16.15
48894;BMP280;34710;35.798;139.446;2023-05-07T09:52:11;99928.45;;;14.81
48894;BMP280;34710;35.798;139.446;2023-05-07T09:54:35;99922.91;;;15.21
48894;BMP280;34710;35.798;139.446;2023-05-07T09:57:01;99921.54;;;15.71
48894;BMP280;34710;35.798;139.446;2023-05-07T09:59:25;99918.14;;;15.54
48894;BMP280;34710;35.798;139.446;2023-05-07T10:01:52;99919.77;;;15.16
48894;BMP280;34710;35.798;139.446;2023-05-07T10:04:16;99911.25;;;15.27
48894;BMP280;34710;35.798;139.446;2023-05-07T10:06:41;99906.77;;;15.63
48894;BMP280;34710;35.798;139.446;2023-05-07T10:09:06;99892.99;;;15.52
48894;BMP280;34710;35.798;139.446;2023-05-07T10:11:33;99893.86;;;15.70
48894;BMP280;34710;35.798;139.446;2023-05-07T10:13:57;99888.37;;;15.87
48894;BMP280;34710;35.798;139.446;2023-05-07T10:16:22;99887.87;;;15.69
48894;BMP280;34710;35.798;139.446;2023-05-07T10:18:47;99894.67;;;15.31
48894;BMP280;34710;35.798;139.446;2023-05-07T10:21:17;99894.48;;;15.56
48894;BMP280;34710;35.798;139.446;2023-05-07T10:23:37;99889.01;;;15.41
48894;BMP280;34710;35.798;139.446;2023-05-07T10:26:03;99884.42;;;15.78
48894;BMP280;34710;35.798;139.446;2023-05-07T10:28:28;99880.61;;;15.53
48894;BMP280;34710;35.798;139.446;2023-05-07T10:31:03;99878.84;;;16.03
48894;BMP280;34710;35.798;139.446;2023-05-07T10:33:22;99875.97;;;16.07
48894;BMP280;34710;35.798;139.446;2023-05-07T10:35:45;99871.91;;;16.15
48894;BMP280;34710;35.798;139.446;2023-05-07T10:38:09;99866.60;;;15.44
48894;BMP280;34710;35.798;139.446;2023-05-07T10:40:33;99860.99;;;15.70
48894;BMP280;34710;35.798;139.446;2023-05-07T10:43:00;99858.88;;;15.05
48894;BMP280;34710;35.798;139.446;2023-05-07T10:45:25;99861.66;;;15.15
48894;BMP280;34710;35.798;139.446;2023-05-07T10:50:22;99852.37;;;15.52
48894;BMP280;34710;35.798;139.446;2023-05-07T10:52:39;99847.38;;;15.42
48894;BMP280;34710;35.798;139.446;2023-05-07T10:55:19;99845.96;;;15.26
48894;BMP280;34710;35.798;139.446;2023-05-07T10:57:35;99850.26;;;15.00
48894;BMP280;34710;35.798;139.446;2023-05-07T10:59:54;99849.12;;;15.33
48894;BMP280;34710;35.798;139.446;2023-05-07T11:02:20;99850.46;;;14.91
48894;BMP280;34710;35.798;139.446;2023-05-07T11:04:45;99856.80;;;14.90
48894;BMP280;34710;35.798;139.446;2023-05-07T11:07:24;99856.92;;;14.79
48894;BMP280;34710;35.798;139.446;2023-05-07T11:12:01;99864.71;;;14.82
48894;BMP280;34710;35.798;139.446;2023-05-07T11:16:50;99873.45;;;14.66
48894;BMP280;34710;35.798;139.446;2023-05-07T11:19:16;99872.93;;;15.07
48894;BMP280;34710;35.798;139.446;2023-05-07T11:21:42;99869.77;;;14.66
48894;BMP280;34710;35.798;139.446;2023-05-07T11:24:07;99873.72;;;14.65
48894;BMP280;34710;35.798;139.446;2023-05-07T11:28:57;99865.69;;;15.30
48894;BMP280;34710;35.798;139.446;2023-05-07T11:31:24;99860.17;;;15.28
48894;BMP280;34710;35.798;139.446;2023-05-07T11:33:47;99858.96;;;14.97
48894;BMP280;34710;35.798;139.446;2023-05-07T11:36:12;99863.83;;;14.67
48894;BMP280;34710;35.798;139.446;2023-05-07T11:38:37;99869.98;;;15.22
48894;BMP280;34710;35.798;139.446;2023-05-07T11:41:03;99859.68;;;14.95
48894;BMP280;34710;35.798;139.446;2023-05-07T11:43:28;99850.55;;;14.57
48894;BMP280;34710;35.798;139.446;2023-05-07T11:45:53;99841.60;;;15.23
48894;BMP280;34710;35.798;139.446;2023-05-07T11:48:18;99843.39;;;14.84
48894;BMP280;34710;35.798;139.446;2023-05-07T11:50:52;99837.86;;;14.58
48894;BMP280;34710;35.798;139.446;2023-05-07T11:53:09;99826.63;;;14.58
48894;BMP280;34710;35.798;139.446;2023-05-07T11:55:34;99813.29;;;13.60
48894;BMP280;34710;35.798;139.446;2023-05-07T11:57:59;99803.56;;;14.90
48894;BMP280;34710;35.798;139.446;2023-05-07T12:00:24;99804.96;;;15.01
48894;BMP280;34710;35.798;139.446;2023-05-07T12:02:49;99806.51;;;15.09
48894;BMP280;34710;35.798;139.446;2023-05-07T12:05:14;99808.70;;;15.11
48894;BMP280;34710;35.798;139.446;2023-05-07T12:07:39;99809.21;;;14.42
48894;BMP280;34710;35.798;139.446;2023-05-07T12:10:07;99813.10;;;15.41
48894;BMP280;34710;35.798;139.446;2023-05-07T12:12:31;99805.56;;;15.23
48894;BMP280;34710;35.798;139.446;2023-05-07T12:14:56;99800.92;;;15.46
48894;BMP280;34710;35.798;139.446;2023-05-07T12:17:20;99800.61;;;15.40
48894;BMP280;34710;35.798;139.446;2023-05-07T12:19:46;99804.45;;;15.47
48894;BMP280;34710;35.798;139.446;2023-05-07T12:22:11;99796.99;;;15.38
48894;BMP280;34710;35.798;139.446;2023-05-07T12:24:45;99792.76;;;16.19
48894;BMP280;34710;35.798;139.446;2023-05-07T12:27:01;99785.24;;;15.58
48894;BMP280;34710;35.798;139.446;2023-05-07T12:29:27;99789.85;;;15.85
48894;BMP280;34710;35.798;139.446;2023-05-07T12:31:52;99794.41;;;15.07
48894;BMP280;34710;35.798;139.446;2023-05-07T12:34:17;99787.59;;;15.52
48894;BMP280;34710;35.798;139.446;2023-05-07T12:36:42;99778.85;;;14.98
48894;BMP280;34710;35.798;139.446;2023-05-07T12:39:07;99761.10;;;14.09
48894;BMP280;34710;35.798;139.446;2023-05-07T12:41:43;99764.64;;;14.47
48894;BMP280;34710;35.798;139.446;2023-05-07T12:43:58;99762.88;;;13.99
48894;BMP280;34710;35.798;139.446;2023-05-07T12:46:23;99764.01;;;14.81
48894;BMP280;34710;35.798;139.446;2023-05-07T12:48:47;99758.45;;;14.20
48894;BMP280;34710;35.798;139.446;2023-05-07T12:51:13;99769.77;;;15.45
48894;BMP280;34710;35.798;139.446;2023-05-07T12:53:42;99781.90;;;14.95
48894;BMP280;34710;35.798;139.446;2023-05-07T12:56:04;99751.54;;;15.51
48894;BMP280;34710;35.798;139.446;2023-05-07T12:58:29;99736.92;;;14.91
48894;BMP280;34710;35.798;139.446;2023-05-07T13:00:54;99711.99;;;15.57
48894;BMP280;34710;35.798;139.446;2023-05-07T13:03:25;99693.52;;;14.58
48894;BMP280;34710;35.798;139.446;2023-05-07T13:05:43;99685.18;;;15.12
48894;BMP280;34710;35.798;139.446;2023-05-07T13:08:08;99680.59;;;14.16
48894;BMP280;34710;35.798;139.446;2023-05-07T13:10:34;99681.03;;;14.80
48894;BMP280;34710;35.798;139.446;2023-05-07T13:12:59;99678.51;;;14.17
48894;BMP280;34710;35.798;139.446;2023-05-07T13:15:24;99671.20;;;14.69
48894;BMP280;34710;35.798;139.446;2023-05-07T13:17:49;99652.62;;;14.38
48894;BMP280;34710;35.798;139.446;2023-05-07T13:20:14;99657.05;;;14.36
48894;BMP280;34710;35.798;139.446;2023-05-07T13:22:40;99672.74;;;14.21
48894;BMP280;34710;35.798;139.446;2023-05-07T13:25:05;99684.02;;;14.77
48894;BMP280;34710;35.798;139.446;2023-05-07T13:27:30;99684.89;;;14.80
48894;BMP280;34710;35.798;139.446;2023-05-07T13:29:55;99696.58;;;14.82
48894;BMP280;34710;35.798;139.446;2023-05-07T13:32:20;99700.92;;;15.25
48894;BMP280;34710;35.798;139.446;2023-05-07T13:34:45;99697.68;;;14.39
48894;BMP280;34710;35.798;139.446;2023-05-07T13:37:11;99698.57;;;14.90
48894;BMP280;34710;35.798;139.446;2023-05-07T13:39:35;99690.66;;;14.85
48894;BMP280;34710;35.798;139.446;2023-05-07T13:42:01;99674.43;;;14.74